Time;durP1;ratioP1;P1;durP2;ratioP2;P2;SDS_P1;SDS_P2;PMS_P1;PMS_P2;Temp;Humidity;BMP_temperature;BMP_pressure;BME280_temperature;BME280_humidity;BME280_pressure;Samples;Min_cycle;Max_cycle;Signal;HPM_P1;HPM_P2
2022/04/21 00:00:50;;;;;;;14.33;9.00;;;8.40;99.90;;;;;;6194732;23;20012;-91
2022/04/21 00:03:16;;;;;;;12.37;8.93;;;8.40;99.90;;;;;;6219889;23;20341;-91
2022/04/21 00:05:42;;;;;;;14.43;9.43;;;8.40;99.90;;;;;;6194747;22;20020;-91
2022/04/21 00:08:08;;;;;;;13.77;8.87;;;8.40;99.90;;;;;;6194901;22;20012;-91
2022/04/21 00:10:34;;;;;;;15.93;9.47;;;8.30;99.90;;;;;;6194439;23;20298;-91
2022/04/21 00:12:59;;;;;;;15.90;9.83;;;8.30;99.90;;;;;;6194457;23;20020;-90
2022/04/21 00:15:26;;;;;;;14.93;9.47;;;8.30;99.90;;;;;;6194518;23;20016;-90
2022/04/21 00:17:52;;;;;;;13.85;9.82;;;8.30;99.90;;;;;;6219515;23;20019;-91
2022/04/21 00:20:17;;;;;;;14.18;9.13;;;8.30;99.90;;;;;;6194993;23;20016;-91
2022/04/21 00:25:28;;;;;;;14.27;9.52;;;8.30;99.90;;;;;;6219628;22;20020;-91
2022/04/21 00:27:57;;;;;;;14.35;10.02;;;8.30;99.90;;;;;;6219330;23;20109;-90
2022/04/21 00:30:23;;;;;;;16.40;9.50;;;8.30;99.90;;;;;;6194487;23;20016;-91
2022/04/21 00:32:49;;;;;;;15.45;10.35;;;8.40;99.90;;;;;;6194556;23;20016;-92
2022/04/21 00:35:17;;;;;;;15.32;10.52;;;8.40;99.90;;;;;;6219541;22;20028;-90
2022/04/21 00:37:48;;;;;;;16.52;10.50;;;8.40;99.90;;;;;;6194141;22;20457;-90
2022/04/21 00:40:15;;;;;;;15.38;10.20;;;8.40;99.90;;;;;;6194375;23;20433;-91
2022/04/21 00:42:42;;;;;;;16.55;10.55;;;8.40;99.90;;;;;;6194634;23;20118;-91
2022/04/21 00:45:09;;;;;;;16.38;10.65;;;8.40;99.90;;;;;;6194411;22;20047;-91
2022/04/21 00:47:40;;;;;;;14.68;10.93;;;8.40;99.90;;;;;;6194461;23;20012;-91
2022/04/21 00:50:12;;;;;;;14.73;10.13;;;8.40;99.90;;;;;;6194759;23;20412;-91
2022/04/21 00:52:39;;;;;;;14.82;10.80;;;8.40;99.90;;;;;;6219653;22;20013;-91
2022/04/21 00:55:06;;;;;;;15.68;10.30;;;8.40;99.90;;;;;;6194429;23;20012;-91
2022/04/21 00:57:33;;;;;;;14.18;9.70;;;8.40;99.90;;;;;;6194480;23;20054;-91
2022/04/21 00:59:59;;;;;;;17.40;10.48;;;8.40;99.90;;;;;;6194522;23;20050;-91
2022/04/21 01:05:10;;;;;;;14.10;10.30;;;8.30;99.90;;;;;;6219310;23;20023;-91
2022/04/21 01:07:36;;;;;;;;;;;8.20;99.90;;;;;;6195745;23;20026;-91
2022/04/21 01:10:02;;;;;;;15.32;9.85;;;8.10;99.90;;;;;;6196222;23;19947;-91
2022/04/21 01:12:30;;;;;;;15.25;9.60;;;8.00;99.90;;;;;;6196382;22;20094;-90
2022/04/21 01:14:56;;;;;;;14.75;9.82;;;7.90;99.90;;;;;;6196056;23;20010;-91
2022/04/21 01:17:33;;;;;;;13.60;10.03;;;7.80;99.90;;;;;;6195998;23;20047;-90
2022/04/21 01:19:59;;;;;;;14.20;9.98;;;7.70;99.90;;;;;;6220913;22;20492;-91
2022/04/21 01:22:25;;;;;;;16.77;11.35;;;7.60;99.90;;;;;;6196227;22;20016;-91
2022/04/21 01:24:50;;;;;;;14.50;10.17;;;7.50;99.90;;;;;;6195796;23;20319;-89
2022/04/21 01:27:17;;;;;;;15.13;10.83;;;7.50;99.90;;;;;;6220903;23;20020;-89
2022/04/21 01:29:43;;;;;;;15.95;10.65;;;7.40;99.90;;;;;;6195729;23;20485;-91
2022/04/21 01:32:08;;;;;;;16.23;10.88;;;7.40;99.90;;;;;;6195961;22;20097;-92
2022/04/21 01:34:34;;;;;;;17.97;12.03;;;7.40;99.90;;;;;;6196168;23;20070;-92
2022/04/21 01:42:28;;;;;;;17.90;12.10;;;7.50;99.90;;;;;;6220831;23;20027;-91
2022/04/21 01:45:09;;;;;;;16.10;11.33;;;7.50;99.90;;;;;;6195889;23;20012;-88
2022/04/21 01:47:35;;;;;;;15.45;10.18;;;7.60;99.90;;;;;;6195264;22;20463;-89
2022/04/21 01:50:07;;;;;;;14.80;10.97;;;7.60;99.90;;;;;;6195539;23;20043;-88
2022/04/21 01:52:33;;;;;;;17.40;11.18;;;7.60;99.90;;;;;;6195297;23;20438;-89
2022/04/21 01:54:59;;;;;;;15.68;10.95;;;7.50;99.90;;;;;;6219979;22;20441;-86
2022/04/21 01:57:25;;;;;;;15.73;11.30;;;7.40;99.90;;;;;;6219882;23;20737;-88
2022/04/21 02:00:29;;;;;;;14.60;9.93;;;7.40;99.90;;;;;;6195001;23;20023;-86
2022/04/21 02:03:23;;;;;;;16.05;10.60;;;7.30;99.90;;;;;;6194929;23;20016;-87
2022/04/21 02:06:04;;;;;;;14.77;10.45;;;7.20;99.90;;;;;;6194967;23;20020;-87
2022/04/21 02:08:31;;;;;;;17.17;11.13;;;7.00;99.90;;;;;;6194831;22;20053;-86
2022/04/21 02:10:57;;;;;;;17.10;10.45;;;6.90;99.90;;;;;;6219881;23;20365;-86
2022/04/21 02:13:22;;;;;;;13.30;10.20;;;6.90;99.90;;;;;;6194911;23;20027;-86
2022/04/21 02:15:49;;;;;;;19.60;11.53;;;6.70;99.90;;;;;;6195142;23;20020;-90
2022/04/21 02:18:17;;;;;;;15.55;11.13;;;6.80;99.90;;;;;;6220249;22;20020;-89
2022/04/21 02:20:42;;;;;;;18.25;11.73;;;6.70;99.90;;;;;;6195399;23;20138;-90
2022/04/21 02:23:08;;;;;;;15.23;10.70;;;6.70;99.90;;;;;;6219954;23;20052;-90
2022/04/21 02:25:36;;;;;;;16.40;11.63;;;6.70;99.90;;;;;;6195401;23;20023;-90
2022/04/21 02:28:02;;;;;;;16.90;11.50;;;6.70;99.90;;;;;;6195808;22;20334;-90
2022/04/21 02:30:27;;;;;;;15.80;10.47;;;6.70;99.90;;;;;;6220453;22;20008;-90
2022/04/21 02:32:53;;;;;;;14.07;9.90;;;6.70;99.90;;;;;;6195799;23;20023;-90
2022/04/21 02:35:19;;;;;;;15.63;11.33;;;6.70;99.90;;;;;;6195447;23;20131;-91
2022/04/21 02:37:47;;;;;;;17.07;10.97;;;6.70;99.90;;;;;;6195424;23;20016;-92
2022/04/21 02:40:14;;;;;;;14.18;10.45;;;6.70;99.90;;;;;;6195710;22;20012;-91
2022/04/21 02:42:41;;;;;;;13.45;9.68;;;6.70;99.90;;;;;;6195398;23;20016;-91
2022/04/21 02:45:25;;;;;;;16.15;10.55;;;6.70;99.90;;;;;;6195999;23;20000;-91
2022/04/21 02:47:50;;;;;;;17.17;10.43;;;6.70;99.90;;;;;;6194967;22;20012;-91
2022/04/21 02:50:18;;;;;;;16.27;10.70;;;6.80;99.90;;;;;;6195252;22;20055;-91
2022/04/21 02:52:54;;;;;;;15.52;9.75;;;6.80;99.90;;;;;;6195132;23;20012;-90
2022/04/21 02:58:04;;;;;;;15.55;10.77;;;6.80;99.90;;;;;;6220176;23;20102;-91
2022/04/21 03:00:30;;;;;;;16.70;11.07;;;6.90;99.90;;;;;;6195297;23;20449;-92
2022/04/21 03:02:58;;;;;;;13.90;10.00;;;6.90;99.90;;;;;;6195382;23;20020;-91
2022/04/21 03:05:25;;;;;;;14.43;10.02;;;6.90;99.90;;;;;;6195166;22;20018;-92
2022/04/21 03:07:50;;;;;;;13.07;10.10;;;6.90;99.90;;;;;;6195311;22;20078;-93
2022/04/21 03:10:16;;;;;;;14.20;9.67;;;6.90;99.90;;;;;;6195319;23;20259;-93
2022/04/21 03:12:42;;;;;;;15.70;10.47;;;6.90;99.90;;;;;;6195452;23;20016;-92
2022/04/21 03:15:11;;;;;;;14.30;10.53;;;6.90;99.90;;;;;;6195167;22;20091;-91
2022/04/21 03:17:36;;;;;;;13.10;9.90;;;6.90;99.90;;;;;;6194956;22;20077;-91
2022/04/21 03:20:03;;;;;;;15.93;10.33;;;6.90;99.90;;;;;;6195231;23;20448;-90
2022/04/21 03:25:15;;;;;;;13.85;9.90;;;6.90;99.90;;;;;;6220073;22;19926;-91
2022/04/21 03:27:44;;;;;;;15.70;9.45;;;6.80;99.90;;;;;;6194888;23;20011;-91
2022/04/21 03:30:10;;;;;;;13.55;9.50;;;6.80;99.90;;;;;;6194773;23;20016;-91
2022/04/21 03:32:36;;;;;;;13.95;10.02;;;6.90;99.90;;;;;;6194366;23;20066;-90
2022/04/21 03:35:03;;;;;;;12.98;9.13;;;6.80;99.90;;;;;;6219544;23;20059;-89
2022/04/21 03:37:29;;;;;;;12.50;9.63;;;6.80;99.90;;;;;;6194393;23;20023;-89
2022/04/21 03:39:54;;;;;;;13.57;9.50;;;6.70;99.90;;;;;;6194615;23;20099;-91
2022/04/21 03:42:23;;;;;;;13.23;9.33;;;6.60;99.90;;;;;;6194884;23;20020;-91
2022/04/21 03:44:49;;;;;;;14.73;9.90;;;6.60;99.90;;;;;;6194968;22;20023;-92
2022/04/21 03:47:15;;;;;;;14.98;9.52;;;6.60;99.90;;;;;;6195441;22;20012;-92
2022/04/21 03:49:41;;;;;;;14.07;10.07;;;6.60;99.90;;;;;;6195147;23;20047;-92
2022/04/21 03:52:09;;;;;;;16.13;10.02;;;6.70;99.90;;;;;;6195083;23;20027;-91
2022/04/21 03:54:35;;;;;;;13.95;9.52;;;6.70;99.90;;;;;;6194780;22;20178;-90
2022/04/21 03:57:01;;;;;;;14.53;10.47;;;6.70;99.90;;;;;;6194811;22;20008;-91
2022/04/21 03:59:27;;;;;;;12.83;9.27;;;6.70;99.90;;;;;;6195060;23;20020;-91
2022/04/21 04:01:53;;;;;;;13.53;9.63;;;6.70;99.90;;;;;;6194962;23;20513;-91
2022/04/21 04:04:19;;;;;;;12.77;10.00;;;6.80;99.90;;;;;;6219700;23;20016;-91
2022/04/21 04:12:13;;;;;;;13.23;8.95;;;6.70;99.90;;;;;;6219472;22;20024;-91
2022/04/21 04:14:39;;;;;;;14.20;10.10;;;6.70;99.90;;;;;;6194350;22;20023;-90
2022/04/21 04:17:11;;;;;;;13.20;9.17;;;6.70;99.90;;;;;;6194877;23;20016;-91
2022/04/21 04:19:39;;;;;;;14.43;10.07;;;6.70;99.90;;;;;;6194821;23;20020;-91
2022/04/21 04:22:34;;;;;;;15.10;10.07;;;6.70;99.90;;;;;;6195266;23;20008;-90
2022/04/21 04:25:24;;;;;;;15.02;9.55;;;6.70;99.90;;;;;;6193919;23;20012;-91
2022/04/21 04:27:50;;;;;;;13.07;9.25;;;6.70;99.90;;;;;;6194057;22;20013;-90
2022/04/21 04:33:22;;;;;;;19.48;9.57;;;6.70;99.90;;;;;;6245441;22;20024;-90
2022/04/21 04:35:47;;;;;;;13.13;8.98;;;6.70;99.90;;;;;;6193909;22;20009;-90
2022/04/21 04:39:09;;;;;;;13.73;8.90;;;6.70;99.90;;;;;;6193887;23;20131;-90
2022/04/21 04:44:42;;;;;;;14.90;9.63;;;6.60;99.90;;;;;;6220961;23;20113;-90
2022/04/21 04:47:08;;;;;;;13.73;8.90;;;6.50;99.90;;;;;;6196073;23;20051;-88
2022/04/21 04:49:33;;;;;;;15.80;9.17;;;6.60;99.90;;;;;;6196147;22;20012;-90
2022/04/21 04:52:24;;;;;;;13.83;9.30;;;6.50;99.90;;;;;;6196087;22;20020;-88
2022/04/21 04:54:50;;;;;;;13.80;9.57;;;6.60;99.90;;;;;;6195826;23;20452;-89
2022/04/21 04:57:15;;;;;;;15.07;9.90;;;6.60;99.90;;;;;;6196247;23;20089;-89
2022/04/21 04:59:41;;;;;;;12.50;9.40;;;6.60;99.90;;;;;;6196179;22;20008;-90
2022/04/21 05:02:06;;;;;;;13.43;9.60;;;6.70;99.90;;;;;;6195733;23;20023;-89
2022/04/21 05:04:32;;;;;;;13.77;9.90;;;6.60;99.90;;;;;;6220815;23;20016;-90
2022/04/21 05:06:58;;;;;;;12.53;9.57;;;6.60;99.90;;;;;;6195310;23;20461;-91
2022/04/21 05:09:25;;;;;;;13.63;9.25;;;6.70;99.90;;;;;;6195707;23;20576;-90
2022/04/21 05:11:54;;;;;;;12.40;9.15;;;6.80;99.90;;;;;;6196220;22;20350;-91
2022/04/21 05:14:20;;;;;;;13.88;9.45;;;6.80;99.90;;;;;;6196345;23;20008;-91
2022/04/21 05:16:46;;;;;;;13.85;9.82;;;6.90;99.90;;;;;;6196233;22;20023;-91
2022/04/21 05:19:14;;;;;;;14.53;9.80;;;7.10;99.90;;;;;;6196254;22;20016;-90
2022/04/21 05:21:41;;;;;;;14.77;9.63;;;7.10;99.90;;;;;;6196125;22;20043;-90
2022/04/21 05:24:08;;;;;;;14.38;9.70;;;7.20;99.90;;;;;;6195936;22;20027;-89
2022/04/21 05:26:34;;;;;;;14.52;10.10;;;7.20;99.90;;;;;;6195101;22;20009;-88
2022/04/21 05:31:49;;;;;;;14.57;9.25;;;7.40;99.90;;;;;;6220271;22;20350;-89
2022/04/21 05:34:15;;;;;;;13.18;9.23;;;7.60;99.90;;;;;;6195786;22;20472;-88
2022/04/21 05:36:41;;;;;;;13.87;9.33;;;7.90;99.90;;;;;;6193763;22;20012;-90
2022/04/21 05:39:07;;;;;;;12.65;9.43;;;8.20;99.90;;;;;;6195512;22;20024;-90
2022/04/21 05:41:33;;;;;;;14.43;9.70;;;8.30;99.90;;;;;;6195273;23;20016;-89
2022/04/21 05:44:00;;;;;;;12.73;9.30;;;8.20;99.90;;;;;;6195027;23;20020;-89
2022/04/21 05:46:41;;;;;;;12.55;8.85;;;8.20;99.90;;;;;;6247218;22;20016;-87
2022/04/21 05:49:07;;;;;;;13.38;8.82;;;8.30;99.90;;;;;;6219915;23;20052;-85
2022/04/21 05:51:38;;;;;;;13.77;9.48;;;8.40;99.90;;;;;;6218134;23;20044;-86
2022/04/21 05:54:08;;;;;;;14.05;9.25;;;8.40;99.90;;;;;;6188890;23;20103;-87
2022/04/21 05:56:35;;;;;;;12.55;9.50;;;8.40;99.90;;;;;;6193229;23;20016;-86
2022/04/21 05:59:00;;;;;;;11.77;9.02;;;8.40;99.90;;;;;;6195040;23;20019;-87
2022/04/21 06:01:32;;;;;;;14.73;9.50;;;8.50;99.90;;;;;;6193658;23;20027;-86
2022/04/21 06:04:07;;;;;;;12.10;9.60;;;8.60;99.90;;;;;;6197785;22;20047;-89
2022/04/21 06:06:35;;;;;;;12.38;8.55;;;8.80;99.90;;;;;;6225105;22;20023;-86
2022/04/21 06:27:09;;;;;;;9.73;7.13;;;10.00;99.90;;;;;;6253299;22;20043;-89
2022/04/21 06:32:24;;;;;;;12.13;7.38;;;10.60;99.90;;;;;;6246774;22;20024;-89
2022/04/21 06:37:25;;;;;;;9.77;6.88;;;12.00;99.90;;;;;;6277844;22;20028;-90
2022/04/21 06:39:51;;;;;;;9.83;6.93;;;12.80;99.90;;;;;;6225558;22;20332;-92
2022/04/21 06:50:12;;;;;;;12.27;6.93;;;15.50;97.40;;;;;;6220119;23;20024;-89
2022/04/21 07:05:44;;;;;;;10.32;7.40;;;15.90;88.60;;;;;;6275346;22;20045;-89
2022/04/21 07:17:23;;;;;;;8.40;6.60;;;15.10;88.30;;;;;;6131376;22;20462;-90
2022/04/21 07:19:49;;;;;;;8.73;6.00;;;15.10;86.50;;;;;;6224727;22;20019;-87
2022/04/21 07:22:14;;;;;;;7.32;4.80;;;14.90;86.00;;;;;;6224907;22;20012;-89
2022/04/21 07:24:40;;;;;;;9.73;4.20;;;14.70;85.20;;;;;;6224621;22;20016;-86
2022/04/21 07:27:06;;;;;;;8.43;4.37;;;14.70;86.60;;;;;;6224692;22;20090;-88
2022/04/21 07:29:31;;;;;;;8.53;3.83;;;14.80;84.40;;;;;;6224424;22;20012;-86
2022/04/21 07:31:57;;;;;;;5.67;2.80;;;14.70;83.80;;;;;;6249489;22;20399;-88
2022/04/21 07:34:26;;;;;;;6.87;2.90;;;14.70;83.90;;;;;;6224565;22;20026;-89
2022/04/21 07:36:51;;;;;;;5.55;3.10;;;14.70;83.00;;;;;;6249541;22;20024;-87
2022/04/21 07:39:18;;;;;;;5.77;2.83;;;14.50;82.60;;;;;;6249839;22;20404;-85
2022/04/21 07:41:44;;;;;;;;;;;14.20;84.10;;;;;;6249687;22;20326;-88
2022/04/21 07:44:10;;;;;;;6.30;3.60;;;14.00;84.30;;;;;;6224490;22;19923;-87
2022/04/21 07:46:36;;;;;;;6.33;3.10;;;13.80;84.70;;;;;;6247778;22;20484;-87
2022/04/21 07:51:46;;;;;;;7.30;4.20;;;13.50;84.80;;;;;;6274212;22;20030;-89
2022/04/21 07:54:12;;;;;;;8.90;5.73;;;13.40;86.50;;;;;;6223450;22;20012;-87
2022/04/21 07:56:38;;;;;;;10.00;6.90;;;13.40;87.90;;;;;;6248096;22;20098;-87
2022/04/21 07:59:06;;;;;;;10.02;6.63;;;13.40;87.00;;;;;;6223870;22;20021;-86
2022/04/21 08:01:34;;;;;;;11.98;7.63;;;13.30;86.60;;;;;;6223505;22;20014;-88
2022/04/21 08:04:02;;;;;;;12.35;7.60;;;13.40;86.10;;;;;;6224035;22;20077;-87
2022/04/21 08:06:30;;;;;;;11.73;6.68;;;13.30;85.30;;;;;;6249426;22;20022;-87
2022/04/21 08:08:59;;;;;;;8.32;5.25;;;13.30;86.70;;;;;;6249483;22;20094;-88
2022/04/21 08:11:27;;;;;;;8.43;4.40;;;13.30;89.10;;;;;;6224478;22;20070;-88
2022/04/21 08:13:56;;;;;;;9.30;6.40;;;13.40;88.90;;;;;;6224049;22;20023;-86
2022/04/21 08:16:24;;;;;;;9.35;6.38;;;13.40;88.80;;;;;;6224274;22;20349;-87
2022/04/21 08:18:52;;;;;;;9.05;6.20;;;13.50;88.20;;;;;;6226053;22;20099;-88
2022/04/21 08:21:18;;;;;;;11.73;7.07;;;13.50;87.60;;;;;;6278504;22;20030;-86
2022/04/21 08:23:44;;;;;;;11.10;6.63;;;13.50;88.00;;;;;;6278718;22;20020;-86
2022/04/21 08:34:22;;;;;;;5.60;3.72;;;13.70;87.00;;;;;;6251593;22;20026;-87
2022/04/21 08:36:47;;;;;;;6.47;3.20;;;13.70;87.00;;;;;;6278647;22;20012;-89
2022/04/21 08:39:13;;;;;;;6.53;3.07;;;13.70;87.80;;;;;;6278504;22;20024;-86
2022/04/21 08:41:47;;;;;;;5.85;2.80;;;13.80;86.60;;;;;;6226088;22;20095;-87
2022/04/21 08:44:17;;;;;;;5.55;2.80;;;13.80;85.20;;;;;;6251732;22;20094;-89
2022/04/21 08:46:45;;;;;;;7.20;3.03;;;13.80;85.30;;;;;;6226142;22;20016;-88
2022/04/21 08:49:14;;;;;;;7.72;2.90;;;13.80;84.00;;;;;;6225875;22;20400;-86
2022/04/21 08:51:40;;;;;;;4.90;2.78;;;13.80;85.60;;;;;;6250996;22;20016;-86
2022/04/21 08:54:06;;;;;;;8.15;3.15;;;13.80;85.30;;;;;;6250971;22;20015;-86
2022/04/21 08:56:32;;;;;;;5.20;3.00;;;13.90;84.40;;;;;;6251026;22;20154;-88
2022/04/21 08:58:58;;;;;;;5.55;2.72;;;13.80;84.90;;;;;;6225543;22;20085;-87
2022/04/21 09:01:25;;;;;;;7.15;3.35;;;13.90;85.40;;;;;;6250765;22;20453;-87
2022/04/21 09:04:01;;;;;;;5.53;3.15;;;14.00;85.50;;;;;;6250954;22;20464;-89
2022/04/21 09:06:27;;;;;;;5.40;2.63;;;14.00;84.80;;;;;;6250569;22;20016;-87
2022/04/21 09:09:11;;;;;;;;;;;14.00;84.80;;;;;;6251414;22;20024;-87
2022/04/21 09:11:37;;;;;;;5.15;2.88;;;14.00;85.50;;;;;;6250943;22;20073;-88
2022/04/21 09:14:03;;;;;;;6.43;3.23;;;14.10;86.20;;;;;;6220350;23;20474;-87
2022/04/21 09:16:36;;;;;;;5.72;2.90;;;14.20;86.30;;;;;;6245735;23;20023;-86
2022/04/21 09:19:02;;;;;;;5.93;3.15;;;14.30;85.90;;;;;;6245657;23;20017;-87
2022/04/21 09:21:38;;;;;;;5.77;2.70;;;14.30;85.50;;;;;;6245279;23;20038;-87
2022/04/21 09:24:24;;;;;;;6.40;3.07;;;14.40;85.30;;;;;;6245771;23;20051;-88
2022/04/21 09:26:50;;;;;;;6.30;3.20;;;14.40;84.00;;;;;;6220414;23;20406;-86
2022/04/21 09:29:30;;;;;;;7.53;3.30;;;14.40;84.20;;;;;;6220089;23;20047;-88
2022/04/21 09:32:04;;;;;;;5.03;2.97;;;14.40;85.70;;;;;;6245546;23;20047;-87
2022/04/21 09:34:30;;;;;;;5.60;3.28;;;14.50;85.40;;;;;;6220073;23;20020;-87
2022/04/21 09:36:57;;;;;;;4.70;2.83;;;14.60;86.40;;;;;;6220166;23;20062;-86
2022/04/21 09:39:23;;;;;;;4.97;3.00;;;14.70;86.50;;;;;;6245485;23;20020;-87
2022/04/21 09:41:54;;;;;;;7.18;3.45;;;14.80;85.80;;;;;;6245670;23;20054;-86
2022/04/21 09:47:07;;;;;;;7.95;3.28;;;14.80;85.00;;;;;;6245435;23;20099;-86
2022/04/21 09:49:35;;;;;;;4.88;3.00;;;14.80;84.20;;;;;;6219986;23;20018;-87
2022/04/21 09:52:01;;;;;;;5.07;3.00;;;14.90;84.60;;;;;;6245406;23;20024;-88
2022/04/21 09:54:30;;;;;;;5.73;3.07;;;14.90;84.40;;;;;;6245305;23;20091;-88
2022/04/21 09:56:57;;;;;;;6.78;3.38;;;15.00;83.40;;;;;;6245292;23;20039;-86
2022/04/21 09:59:24;;;;;;;5.80;3.33;;;15.00;83.50;;;;;;6245381;23;20138;-85
2022/04/21 10:01:50;;;;;;;6.38;3.10;;;15.00;83.00;;;;;;6220030;23;20023;-87
2022/04/21 10:04:20;;;;;;;4.78;2.80;;;15.10;82.50;;;;;;6245431;23;20016;-89
2022/04/21 10:06:55;;;;;;;4.78;2.88;;;15.10;82.40;;;;;;6219921;23;20020;-87
2022/04/21 10:09:25;;;;;;;4.85;2.78;;;15.10;83.60;;;;;;6220766;23;20039;-87
2022/04/21 10:11:52;;;;;;;6.82;2.80;;;15.20;83.50;;;;;;6245321;23;20464;-85
2022/04/21 10:14:18;;;;;;;6.57;2.60;;;15.30;82.80;;;;;;6245064;22;20453;-88
2022/04/21 10:16:44;;;;;;;4.85;2.80;;;15.40;81.00;;;;;;6244955;23;20020;-87
2022/04/21 10:19:12;;;;;;;5.50;2.70;;;15.40;80.00;;;;;;6220042;23;20023;-90
2022/04/21 10:22:04;;;;;;;7.70;3.00;;;15.40;80.50;;;;;;6245182;23;20082;-88
2022/04/21 10:24:37;;;;;;;4.60;2.60;;;15.40;79.50;;;;;;6219776;23;20078;-87
2022/04/21 10:30:25;;;;;;;6.95;3.28;;;15.60;80.70;;;;;;6239491;22;20476;-86
2022/04/21 10:32:52;;;;;;;6.85;2.90;;;15.70;79.70;;;;;;6219060;23;20027;-83
2022/04/21 10:35:27;;;;;;;4.63;2.67;;;15.80;79.70;;;;;;6244504;23;20019;-85
2022/04/21 10:38:43;;;;;;;7.82;2.53;;;15.80;79.80;;;;;;6244871;23;20020;-85
2022/04/21 10:41:10;;;;;;;5.13;2.90;;;15.80;80.00;;;;;;6195504;23;20020;-85
2022/04/21 10:43:48;;;;;;;4.63;2.50;;;16.00;80.50;;;;;;6217637;23;20012;-84
2022/04/21 10:46:41;;;;;;;7.65;2.80;;;16.10;79.00;;;;;;6244816;23;20016;-84
2022/04/21 10:49:06;;;;;;;6.47;2.85;;;16.10;78.00;;;;;;6243359;23;20016;-85
2022/04/21 10:57:31;;;;;;;5.80;3.10;;;16.30;75.60;;;;;;6244505;23;20099;-87
2022/04/21 11:00:05;;;;;;;5.93;2.53;;;16.30;75.80;;;;;;6244716;23;20027;-88
2022/04/21 11:02:38;;;;;;;6.15;2.40;;;16.40;74.80;;;;;;6245265;23;20020;-86
2022/04/21 11:05:22;;;;;;;4.35;2.30;;;16.50;74.80;;;;;;6219254;23;20016;-88
2022/04/21 11:07:56;;;;;;;4.82;2.53;;;16.50;73.80;;;;;;6244605;23;20019;-88
2022/04/21 11:10:41;;;;;;;4.90;2.38;;;16.50;73.80;;;;;;6244700;23;20027;-86
2022/04/21 11:13:09;;;;;;;4.68;2.40;;;16.50;73.80;;;;;;6244601;23;20342;-87
2022/04/21 11:15:39;;;;;;;5.72;2.70;;;16.50;73.80;;;;;;6246224;22;20020;-88
2022/04/21 11:18:15;;;;;;;5.28;2.78;;;16.60;73.50;;;;;;6219286;23;20016;-86
2022/04/21 11:20:48;;;;;;;5.50;2.60;;;16.70;72.30;;;;;;6244593;23;20019;-86
2022/04/21 11:23:24;;;;;;;5.78;2.80;;;16.60;72.20;;;;;;6219367;23;20453;-86
2022/04/21 11:26:05;;;;;;;6.47;3.08;;;16.70;73.20;;;;;;6244377;23;20346;-87
2022/04/21 11:28:31;;;;;;;4.93;2.70;;;16.80;72.10;;;;;;6244416;23;20100;-88
2022/04/21 11:30:59;;;;;;;4.05;2.50;;;16.80;72.10;;;;;;6218779;23;20023;-87
2022/04/21 11:33:25;;;;;;;5.40;2.63;;;16.80;71.40;;;;;;6244489;23;20059;-86
2022/04/21 11:36:05;;;;;;;6.70;2.72;;;16.70;72.50;;;;;;6244433;23;20465;-89
2022/04/21 11:38:41;;;;;;;6.85;2.80;;;16.80;72.50;;;;;;6219020;23;20099;-86
2022/04/21 11:41:08;;;;;;;5.20;2.70;;;16.80;73.30;;;;;;6219400;23;20027;-87
2022/04/21 11:43:35;;;;;;;5.45;2.53;;;16.90;72.80;;;;;;6219128;23;20442;-87
2022/04/21 11:46:06;;;;;;;5.10;2.95;;;16.90;72.20;;;;;;6244398;23;20016;-86
2022/04/21 11:48:40;;;;;;;4.30;2.50;;;16.90;72.50;;;;;;6244315;23;20016;-87
2022/04/21 11:51:06;;;;;;;5.53;3.30;;;17.00;72.10;;;;;;6244126;23;20012;-86
2022/04/21 11:53:36;;;;;;;6.00;3.00;;;17.10;71.60;;;;;;6244012;23;20404;-87
2022/04/21 11:56:06;;;;;;;5.53;3.15;;;17.10;71.10;;;;;;6244068;23;20074;-87
2022/04/21 11:58:34;;;;;;;5.75;2.95;;;17.10;71.40;;;;;;6244177;23;20073;-86
2022/04/21 12:06:49;;;;;;;6.25;3.72;;;17.10;71.60;;;;;;6243946;23;20098;-87
2022/04/21 12:09:17;;;;;;;6.97;3.20;;;17.20;72.40;;;;;;6244139;23;20017;-86
2022/04/21 12:11:50;;;;;;;6.32;3.22;;;17.10;71.70;;;;;;6245813;22;20361;-88
2022/04/21 12:14:17;;;;;;;5.57;3.55;;;16.90;71.50;;;;;;6218647;23;20016;-88
2022/04/21 12:16:54;;;;;;;8.43;3.03;;;16.80;71.80;;;;;;6244172;23;20023;-86
2022/04/21 12:19:39;;;;;;;5.70;3.28;;;16.90;73.00;;;;;;6244101;23;20373;-87
2022/04/21 12:22:13;;;;;;;5.15;3.63;;;17.00;73.30;;;;;;6244017;23;20054;-86
2022/04/21 12:24:43;;;;;;;6.38;3.42;;;17.10;72.30;;;;;;6244149;23;20020;-88
2022/04/21 12:27:34;;;;;;;5.15;3.33;;;17.20;72.80;;;;;;6243886;23;20019;-87
2022/04/21 12:30:05;;;;;;;5.70;3.10;;;17.30;72.00;;;;;;6243830;22;20390;-87
2022/04/21 12:32:36;;;;;;;5.75;3.08;;;17.40;72.10;;;;;;6244102;23;20035;-87
2022/04/21 12:35:07;;;;;;;5.03;3.17;;;17.40;69.80;;;;;;6218666;23;20457;-86
2022/04/21 12:37:41;;;;;;;6.38;3.47;;;17.30;69.70;;;;;;6244258;23;20070;-87
2022/04/21 12:40:13;;;;;;;4.82;3.10;;;17.30;71.50;;;;;;6218757;23;20016;-87
2022/04/21 12:42:43;;;;;;;6.88;3.13;;;17.40;71.90;;;;;;6244098;23;20029;-87
2022/04/21 12:45:10;;;;;;;7.00;3.35;;;17.40;70.40;;;;;;6218788;23;20020;-87
2022/04/21 12:47:43;;;;;;;6.88;3.42;;;17.30;70.50;;;;;;6243983;23;20020;-87
2022/04/21 12:50:12;;;;;;;6.00;3.67;;;17.20;71.20;;;;;;6245504;23;20016;-86
2022/04/21 12:52:45;;;;;;;6.90;3.50;;;17.20;71.50;;;;;;6245521;22;20083;-89
2022/04/21 12:55:22;;;;;;;7.32;4.00;;;17.20;71.90;;;;;;6245481;23;20092;-86
2022/04/21 12:58:11;;;;;;;6.53;3.65;;;17.30;71.90;;;;;;6243911;23;20019;-89
2022/04/21 13:00:42;;;;;;;7.22;4.10;;;17.40;71.80;;;;;;6218574;23;20023;-86
2022/04/21 13:03:14;;;;;;;9.15;3.80;;;17.30;71.10;;;;;;6244476;23;20012;-87
2022/04/21 13:05:51;;;;;;;5.93;3.40;;;17.20;71.20;;;;;;6245829;23;20058;-87
2022/04/21 13:08:18;;;;;;;6.50;3.67;;;17.20;71.30;;;;;;6220527;23;20445;-88
2022/04/21 13:10:44;;;;;;;6.07;3.47;;;17.20;70.70;;;;;;6245870;23;20023;-87
2022/04/21 13:13:09;;;;;;;5.95;3.50;;;17.20;70.60;;;;;;6247387;23;20004;-89
2022/04/21 13:15:55;;;;;;;6.20;3.20;;;17.10;71.50;;;;;;6220421;23;20442;-88
2022/04/21 13:18:39;;;;;;;7.45;3.50;;;17.10;71.10;;;;;;6220569;23;20024;-90
2022/04/21 13:23:55;;;;;;;7.60;3.90;;;17.10;71.70;;;;;;6245378;23;20074;-87
2022/04/21 13:26:28;;;;;;;6.15;3.55;;;17.10;71.00;;;;;;6245696;23;20415;-86
2022/04/21 13:28:55;;;;;;;6.63;3.78;;;17.10;71.20;;;;;;6245920;23;20028;-88
2022/04/21 13:34:43;;;;;;;6.80;3.75;;;17.00;70.20;;;;;;6245703;23;20138;-89
2022/04/21 13:37:16;;;;;;;8.68;3.60;;;16.90;71.00;;;;;;6209071;23;20012;-85
2022/04/21 13:40:13;;;;;;;6.65;4.30;;;16.90;71.40;;;;;;6220273;23;20512;-86
2022/04/21 13:45:15;;;;;;;6.78;4.00;;;17.00;71.50;;;;;;6221876;22;20024;-86
2022/04/21 13:47:41;;;;;;;5.75;3.97;;;17.00;71.40;;;;;;6195409;23;20027;-88
2022/04/21 13:50:07;;;;;;;7.15;4.00;;;16.90;71.80;;;;;;6220280;23;20012;-85
2022/04/21 13:52:34;;;;;;;9.20;4.35;;;17.00;71.40;;;;;;6220456;23;20103;-86
2022/04/21 13:55:00;;;;;;;7.45;4.05;;;16.90;71.20;;;;;;6195342;23;20397;-87
2022/04/21 13:57:25;;;;;;;6.97;4.35;;;16.90;72.60;;;;;;6194753;23;20020;-88
2022/04/21 13:59:51;;;;;;;8.52;4.88;;;16.90;73.60;;;;;;6220504;23;20023;-85
2022/04/21 14:02:17;;;;;;;9.52;4.60;;;16.80;73.80;;;;;;6219830;23;20013;-87
2022/04/21 14:04:43;;;;;;;8.40;4.25;;;16.80;73.80;;;;;;6193128;23;20064;-86
2022/04/21 14:07:22;;;;;;;6.75;4.30;;;16.80;74.00;;;;;;6219861;23;20020;-86
2022/04/21 14:09:47;;;;;;;9.80;4.97;;;16.80;73.90;;;;;;6195517;23;20020;-87
2022/04/21 14:12:23;;;;;;;;;;;;;;;;;;;;;
2022/04/21 14:14:53;;;;;;;8.10;4.63;;;16.80;74.10;;;;;;6219687;23;20054;-88
2022/04/21 14:17:21;;;;;;;7.35;4.40;;;16.80;74.40;;;;;;6219762;23;20070;-87
2022/04/21 14:19:50;;;;;;;10.25;5.75;;;16.80;74.80;;;;;;6195578;23;20016;-87
2022/04/21 14:22:15;;;;;;;9.13;5.43;;;16.80;75.20;;;;;;6220780;23;20016;-87
2022/04/21 14:24:43;;;;;;;8.02;5.93;;;16.80;75.50;;;;;;6219962;23;20097;-86
2022/04/21 14:27:16;;;;;;;8.02;5.85;;;16.70;75.80;;;;;;6219767;23;20099;-87
2022/04/21 14:30:06;;;;;;;11.13;6.63;;;16.60;76.70;;;;;;6194909;23;20094;-88
2022/04/21 14:32:32;;;;;;;9.45;6.57;;;16.70;77.80;;;;;;6194175;23;20018;-88
2022/04/21 14:34:58;;;;;;;10.60;6.82;;;16.60;77.20;;;;;;6195056;23;20094;-88
2022/04/21 14:46:05;;;;;;;10.68;7.38;;;16.20;79.20;;;;;;6218914;23;20027;-88
2022/04/21 14:48:31;;;;;;;10.52;6.78;;;16.20;79.50;;;;;;6194099;23;20098;-87
2022/04/21 14:50:57;;;;;;;11.30;7.07;;;16.10;80.30;;;;;;6220037;23;20337;-86
2022/04/21 14:53:24;;;;;;;9.88;6.78;;;16.10;80.60;;;;;;6195278;23;20020;-88
2022/04/21 14:56:47;;;;;;;10.25;7.07;;;16.00;80.80;;;;;;6220013;23;20008;-88
2022/04/21 14:59:16;;;;;;;12.35;7.55;;;15.90;81.10;;;;;;6194480;23;20071;-86
2022/04/21 15:01:42;;;;;;;11.95;7.03;;;15.90;81.90;;;;;;6193827;23;20442;-87
2022/04/21 15:04:14;;;;;;;12.45;7.50;;;15.80;82.70;;;;;;6219676;23;20023;-86
2022/04/21 15:06:48;;;;;;;11.35;7.78;;;15.80;83.00;;;;;;6195214;23;20016;-88
2022/04/21 15:17:04;;;;;;;9.75;6.90;;;15.50;84.30;;;;;;6246470;22;20429;-89